Time;durP1;ratioP1;P1;durP2;ratioP2;P2;SDS_P1;SDS_P2;PMS_P1;PMS_P2;Temp;Humidity;BMP_temperature;BMP_pressure;BME280_temperature;BME280_humidity;BME280_pressure;Samples;Min_cycle;Max_cycle;Signal;HPM_P1;HPM_P2
2022/10/27 00:00:39;;;;;;;8.10;4.70;;;14.40;81.30;;;;;;5031958;28;20485;-76
2022/10/27 00:03:05;;;;;;;10.15;4.95;;;14.40;81.30;;;;;;5031900;28;20562;-76
2022/10/27 00:05:31;;;;;;;10.13;5.45;;;14.40;81.40;;;;;;5032311;28;20421;-76
2022/10/27 00:07:57;;;;;;;10.50;5.45;;;14.40;81.40;;;;;;5036230;28;20060;-76
2022/10/27 00:10:22;;;;;;;13.43;6.00;;;14.30;81.40;;;;;;5039177;28;20041;-77
2022/10/27 00:12:48;;;;;;;16.45;5.65;;;14.40;81.50;;;;;;5032137;28;20048;-77
2022/10/27 00:15:14;;;;;;;11.82;5.45;;;14.40;81.60;;;;;;5031844;28;20053;-76
2022/10/27 00:17:40;;;;;;;7.20;5.00;;;14.30;81.60;;;;;;5031742;28;20056;-76
2022/10/27 00:20:07;;;;;;;11.93;5.53;;;14.30;81.70;;;;;;5031593;28;20033;-77
2022/10/27 00:22:33;;;;;;;11.93;6.15;;;14.30;81.80;;;;;;5031815;28;20057;-76
2022/10/27 00:24:59;;;;;;;7.85;5.57;;;14.30;81.90;;;;;;5032263;28;20076;-77
2022/10/27 00:27:24;;;;;;;9.15;5.32;;;14.30;81.90;;;;;;5031912;28;20048;-76
2022/10/27 00:29:50;;;;;;;12.00;5.80;;;14.30;82.10;;;;;;5031710;28;20099;-76
2022/10/27 00:32:15;;;;;;;10.68;6.43;;;14.30;82.20;;;;;;5031623;28;20041;-76
2022/10/27 00:34:41;;;;;;;9.10;5.60;;;14.30;82.30;;;;;;5031688;28;20048;-73
2022/10/27 00:37:07;;;;;;;9.85;5.90;;;14.30;82.30;;;;;;5036088;28;20037;-73
2022/10/27 00:39:32;;;;;;;9.90;5.97;;;14.30;82.40;;;;;;5015114;28;20045;-73
2022/10/27 00:41:58;;;;;;;12.32;6.50;;;14.30;82.40;;;;;;5031622;28;20481;-73
2022/10/27 00:44:34;;;;;;;11.85;6.82;;;14.30;82.40;;;;;;5031614;28;20048;-73
2022/10/27 00:47:23;;;;;;;11.60;6.68;;;14.30;82.40;;;;;;5031129;28;20492;-73
2022/10/27 00:49:52;;;;;;;11.90;6.97;;;14.30;82.30;;;;;;5033232;28;20132;-73
2022/10/27 00:52:27;;;;;;;10.38;6.20;;;14.20;82.30;;;;;;5035105;28;20077;-73
2022/10/27 00:54:56;;;;;;;7.45;6.28;;;14.30;82.30;;;;;;5015637;28;20077;-73
2022/10/27 00:57:22;;;;;;;12.52;6.85;;;14.20;82.20;;;;;;5017736;28;20037;-74
2022/10/27 00:59:48;;;;;;;10.25;6.03;;;14.20;82.20;;;;;;5055292;28;20033;-73
2022/10/27 01:02:15;;;;;;;11.73;6.53;;;14.20;82.20;;;;;;5040230;28;20042;-74
2022/10/27 01:04:53;;;;;;;12.27;7.40;;;14.20;82.30;;;;;;5042295;28;20116;-73
2022/10/27 01:07:20;;;;;;;10.30;6.47;;;14.20;82.50;;;;;;5040596;28;20040;-73
2022/10/27 01:09:46;;;;;;;13.07;7.07;;;14.10;82.50;;;;;;5055360;28;20040;-73
2022/10/27 01:12:12;;;;;;;15.25;7.65;;;14.10;82.60;;;;;;5055080;28;20052;-73
2022/10/27 01:14:37;;;;;;;13.00;8.23;;;14.10;82.80;;;;;;5049188;28;20053;-73
2022/10/27 01:17:15;;;;;;;9.85;7.45;;;14.10;83.00;;;;;;5002242;28;20052;-73
2022/10/27 01:20:29;;;;;;;11.35;7.90;;;14.10;83.20;;;;;;5034837;28;20042;-73
2022/10/27 01:23:33;;;;;;;12.65;7.95;;;14.10;83.30;;;;;;5017560;28;20527;-73
2022/10/27 01:26:17;;;;;;;11.48;7.43;;;14.10;83.40;;;;;;4978157;28;20517;-73
2022/10/27 01:29:10;;;;;;;10.73;7.80;;;14.20;83.50;;;;;;5031289;28;20052;-72
2022/10/27 01:31:49;;;;;;;14.93;8.60;;;14.20;83.60;;;;;;5061486;28;20072;-75
2022/10/27 01:34:40;;;;;;;9.57;7.43;;;14.20;83.80;;;;;;5051027;28;20053;-75
2022/10/27 01:37:26;;;;;;;9.48;7.32;;;14.20;83.80;;;;;;5014151;28;20041;-76
2022/10/27 01:40:03;;;;;;;11.13;7.80;;;14.20;83.80;;;;;;5044148;28;20500;-76
2022/10/27 01:42:39;;;;;;;12.77;7.50;;;14.20;84.00;;;;;;5035084;28;20108;-76
2022/10/27 01:45:08;;;;;;;16.88;7.57;;;14.20;84.50;;;;;;5046546;28;20044;-77
2022/10/27 01:47:35;;;;;;;14.40;8.13;;;14.20;84.10;;;;;;5057300;28;20126;-76
2022/10/27 01:50:01;;;;;;;14.45;7.53;;;14.30;84.20;;;;;;5051436;28;20042;-75
2022/10/27 01:52:48;;;;;;;11.80;6.78;;;14.30;84.30;;;;;;5035042;28;20049;-76
2022/10/27 01:55:26;;;;;;;12.70;7.75;;;14.30;84.40;;;;;;5034558;28;20122;-76
2022/10/27 01:58:36;;;;;;;12.18;7.72;;;14.30;84.40;;;;;;5042206;28;20046;-76
2022/10/27 02:01:23;;;;;;;17.60;7.78;;;14.30;84.50;;;;;;4993163;28;20053;-76
2022/10/27 02:03:51;;;;;;;12.35;6.53;;;14.40;84.60;;;;;;4977749;28;20050;-76
2022/10/27 02:06:59;;;;;;;9.98;6.97;;;14.40;84.50;;;;;;5011526;28;20059;-76
2022/10/27 02:09:34;;;;;;;8.60;5.95;;;14.40;84.90;;;;;;5025729;28;20041;-76
2022/10/27 02:12:03;;;;;;;12.15;6.97;;;14.40;84.60;;;;;;5034042;28;20041;-76
2022/10/27 02:14:29;;;;;;;11.43;7.40;;;14.40;84.60;;;;;;5033805;28;20045;-76
2022/10/27 02:16:56;;;;;;;8.55;6.28;;;14.40;84.60;;;;;;5034582;28;20137;-76
2022/10/27 02:19:24;;;;;;;11.65;7.05;;;14.50;84.70;;;;;;5034014;28;20499;-76
2022/10/27 02:21:52;;;;;;;12.20;7.32;;;14.50;84.60;;;;;;5017578;28;20434;-77
2022/10/27 02:24:20;;;;;;;11.70;7.38;;;14.50;84.60;;;;;;5034059;28;20048;-76
2022/10/27 02:26:59;;;;;;;10.88;6.90;;;14.50;84.50;;;;;;5036976;28;20037;-75
2022/10/27 02:29:33;;;;;;;14.10;7.68;;;14.50;84.50;;;;;;5034363;28;20183;-76
2022/10/27 02:32:02;;;;;;;10.15;6.53;;;14.50;84.40;;;;;;5033838;28;20519;-73
2022/10/27 02:34:30;;;;;;;11.30;6.78;;;14.50;84.30;;;;;;5033022;28;20033;-72
2022/10/27 02:36:56;;;;;;;11.93;7.00;;;14.50;84.20;;;;;;5034385;28;20174;-72
2022/10/27 02:39:22;;;;;;;13.38;6.65;;;14.60;84.20;;;;;;5033317;28;20040;-73
2022/10/27 02:41:48;;;;;;;11.52;6.38;;;14.50;84.10;;;;;;5033174;28;20049;-73
2022/10/27 02:44:13;;;;;;;13.48;8.10;;;14.50;84.10;;;;;;5016965;28;20037;-73
2022/10/27 02:46:39;;;;;;;12.23;7.10;;;14.50;84.10;;;;;;5034866;28;20044;-73
2022/10/27 02:49:05;;;;;;;9.57;6.65;;;14.50;84.00;;;;;;5032947;28;20048;-73
2022/10/27 02:51:30;;;;;;;11.35;7.35;;;14.50;84.00;;;;;;5016342;28;20083;-73
2022/10/27 02:53:56;;;;;;;10.07;7.32;;;14.50;84.00;;;;;;5032732;28;20374;-73
2022/10/27 02:56:22;;;;;;;12.13;7.22;;;14.50;84.00;;;;;;5033514;28;20041;-73
2022/10/27 02:58:47;;;;;;;12.55;7.15;;;14.50;83.90;;;;;;5051965;28;20044;-73
2022/10/27 03:01:13;;;;;;;9.52;6.65;;;14.50;83.80;;;;;;5053000;28;20049;-73
2022/10/27 03:03:38;;;;;;;14.25;7.18;;;14.40;83.70;;;;;;5016886;28;20378;-75
2022/10/27 03:06:04;;;;;;;15.35;8.45;;;14.40;83.60;;;;;;5033506;28;20373;-77
2022/10/27 03:08:30;;;;;;;13.45;8.10;;;14.40;83.50;;;;;;5050114;28;20158;-76
2022/10/27 03:10:55;;;;;;;13.15;6.72;;;14.40;83.50;;;;;;5054641;28;20452;-76
2022/10/27 03:13:21;;;;;;;12.13;7.15;;;14.40;83.60;;;;;;5032753;28;20393;-76
2022/10/27 03:15:47;;;;;;;13.70;7.47;;;14.40;83.60;;;;;;5032911;28;20060;-76
2022/10/27 03:18:12;;;;;;;10.13;7.45;;;14.40;83.50;;;;;;5045990;28;20452;-76
2022/10/27 03:20:38;;;;;;;13.43;7.70;;;14.30;83.90;;;;;;5053403;28;20049;-76
2022/10/27 03:23:04;;;;;;;12.50;7.00;;;14.30;83.40;;;;;;5046345;28;20056;-76
2022/10/27 03:25:30;;;;;;;14.35;7.55;;;14.30;83.50;;;;;;5016506;28;20083;-76
2022/10/27 03:27:55;;;;;;;17.48;7.60;;;14.30;83.50;;;;;;5032720;28;20045;-76
2022/10/27 03:30:21;;;;;;;10.80;7.15;;;14.30;83.50;;;;;;5032839;28;20041;-76
2022/10/27 03:32:48;;;;;;;11.27;7.03;;;14.20;83.50;;;;;;5032459;28;20038;-74
2022/10/27 03:35:18;;;;;;;12.90;6.57;;;14.20;83.60;;;;;;5032327;28;20041;-74
2022/10/27 03:37:44;;;;;;;11.93;7.57;;;14.20;83.60;;;;;;5039770;28;20042;-74
2022/10/27 03:40:10;;;;;;;14.82;8.15;;;14.20;83.50;;;;;;5014702;28;20037;-74
2022/10/27 03:42:41;;;;;;;14.05;7.65;;;14.20;83.40;;;;;;5031877;28;20163;-74
2022/10/27 03:45:08;;;;;;;12.77;8.25;;;14.20;83.40;;;;;;5032217;28;20038;-74
2022/10/27 03:47:33;;;;;;;10.68;7.30;;;14.10;83.30;;;;;;5041315;28;20077;-74
2022/10/27 03:49:59;;;;;;;11.95;7.75;;;14.10;83.30;;;;;;5031985;28;20118;-74
2022/10/27 03:52:24;;;;;;;10.25;7.63;;;14.10;83.30;;;;;;5031828;28;20120;-74
2022/10/27 03:54:50;;;;;;;11.25;7.57;;;14.10;83.40;;;;;;5031516;28;20125;-74
2022/10/27 03:57:16;;;;;;;8.60;7.05;;;14.10;83.40;;;;;;5016560;28;20042;-74
2022/10/27 03:59:41;;;;;;;12.57;8.45;;;14.10;83.40;;;;;;5031596;28;20440;-74
2022/10/27 04:02:07;;;;;;;10.63;8.52;;;14.00;83.20;;;;;;5031759;28;20042;-74
2022/10/27 04:04:33;;;;;;;13.07;8.98;;;14.00;83.20;;;;;;5014945;28;20143;-74
2022/10/27 04:06:58;;;;;;;12.57;8.95;;;14.00;83.20;;;;;;5033532;28;20041;-74
2022/10/27 04:09:24;;;;;;;11.23;8.25;;;14.00;83.20;;;;;;5040093;28;20388;-74
2022/10/27 04:11:50;;;;;;;13.00;9.60;;;14.00;83.20;;;;;;5031744;28;20053;-74
2022/10/27 04:14:15;;;;;;;11.40;8.32;;;13.90;83.10;;;;;;5031424;28;20045;-74
2022/10/27 04:16:41;;;;;;;10.02;7.88;;;13.90;83.10;;;;;;5033536;28;20041;-74
2022/10/27 04:19:07;;;;;;;7.78;6.45;;;13.90;83.20;;;;;;5031219;28;20607;-74
2022/10/27 04:21:33;;;;;;;11.23;7.30;;;13.90;83.20;;;;;;5031638;28;20539;-74
2022/10/27 04:23:58;;;;;;;10.55;7.13;;;13.90;83.20;;;;;;5030541;28;20069;-74
2022/10/27 04:26:24;;;;;;;10.88;7.82;;;13.80;83.10;;;;;;5015381;28;20087;-74
2022/10/27 04:28:49;;;;;;;11.50;7.22;;;13.80;83.10;;;;;;5015841;28;20041;-74
2022/10/27 04:31:15;;;;;;;11.25;7.55;;;13.80;83.30;;;;;;5032083;28;22308;-76
2022/10/27 04:33:41;;;;;;;11.07;8.25;;;13.80;83.10;;;;;;5031664;28;20183;-77
2022/10/27 04:36:07;;;;;;;15.18;8.98;;;13.80;83.10;;;;;;5031776;28;20076;-77
2022/10/27 04:38:32;;;;;;;12.55;9.48;;;13.80;83.00;;;;;;5015565;28;20519;-77
2022/10/27 04:41:01;;;;;;;12.80;9.65;;;13.70;82.90;;;;;;5031906;28;20033;-77
2022/10/27 04:43:27;;;;;;;15.63;10.18;;;13.70;83.00;;;;;;5015294;28;20091;-76
2022/10/27 04:45:53;;;;;;;12.23;9.93;;;13.70;83.20;;;;;;5031716;28;20056;-76
2022/10/27 04:48:18;;;;;;;13.63;10.25;;;13.70;83.20;;;;;;5048108;28;20048;-76
2022/10/27 04:50:44;;;;;;;17.10;10.27;;;13.70;83.30;;;;;;5017492;28;20408;-76
2022/10/27 04:53:10;;;;;;;16.60;11.10;;;13.60;83.40;;;;;;5031508;28;20124;-76
2022/10/27 04:55:36;;;;;;;14.70;9.45;;;13.60;83.50;;;;;;5031800;28;20087;-75
2022/10/27 04:58:01;;;;;;;15.57;10.90;;;13.60;83.60;;;;;;5045157;28;20377;-76
2022/10/27 05:00:27;;;;;;;13.98;10.70;;;13.60;83.70;;;;;;5051730;28;20476;-76
2022/10/27 05:02:54;;;;;;;13.95;10.20;;;13.60;83.80;;;;;;5051583;28;20045;-77
2022/10/27 05:05:20;;;;;;;13.75;10.90;;;13.60;83.90;;;;;;5051475;28;20036;-76
2022/10/27 05:07:53;;;;;;;14.52;10.90;;;13.60;84.00;;;;;;5035062;28;20115;-76
2022/10/27 05:10:19;;;;;;;17.25;10.73;;;13.60;84.20;;;;;;5032100;28;20033;-76
2022/10/27 05:12:44;;;;;;;15.75;10.70;;;13.60;84.20;;;;;;5031379;28;20497;-76
2022/10/27 05:15:10;;;;;;;18.20;10.02;;;13.60;84.20;;;;;;5031468;28;20111;-76
2022/10/27 05:17:37;;;;;;;15.70;11.25;;;13.60;84.30;;;;;;5048117;28;20492;-77
2022/10/27 05:20:03;;;;;;;17.23;10.88;;;13.60;84.50;;;;;;5048157;28;20049;-76
2022/10/27 05:22:28;;;;;;;13.70;10.38;;;13.60;84.50;;;;;;5031387;28;20037;-76
2022/10/27 05:24:54;;;;;;;17.73;11.38;;;13.60;84.60;;;;;;5014602;28;20045;-76
2022/10/27 05:27:20;;;;;;;15.63;10.38;;;13.60;84.60;;;;;;5031455;28;20049;-76
2022/10/27 05:29:45;;;;;;;16.52;10.18;;;13.60;84.60;;;;;;5031267;28;20099;-76
2022/10/27 05:32:11;;;;;;;15.77;10.15;;;13.60;84.70;;;;;;5014787;28;20049;-73
2022/10/27 05:34:37;;;;;;;15.85;10.80;;;13.60;84.70;;;;;;5030982;28;20041;-73
2022/10/27 05:37:03;;;;;;;14.88;10.30;;;13.60;84.70;;;;;;5034305;28;20048;-73
2022/10/27 05:39:29;;;;;;;16.15;10.00;;;13.60;84.70;;;;;;5034099;28;20370;-73
2022/10/27 05:41:54;;;;;;;13.23;9.40;;;13.60;84.70;;;;;;5033712;28;20053;-73
2022/10/27 05:44:20;;;;;;;11.55;9.32;;;13.60;84.70;;;;;;5034518;28;20135;-73
2022/10/27 05:46:46;;;;;;;14.05;10.15;;;13.60;84.80;;;;;;5034093;28;20112;-73
2022/10/27 05:49:11;;;;;;;17.52;10.40;;;13.60;84.80;;;;;;5001685;28;20051;-73
2022/10/27 05:51:37;;;;;;;13.32;9.15;;;13.60;84.80;;;;;;5017467;28;20068;-72
2022/10/27 05:54:02;;;;;;;14.02;9.63;;;13.60;84.90;;;;;;5018074;28;20081;-76
2022/10/27 05:56:28;;;;;;;14.43;9.95;;;13.60;84.90;;;;;;5034658;28;20124;-76
2022/10/27 05:58:54;;;;;;;14.63;10.10;;;13.60;84.90;;;;;;5034526;28;20045;-76
2022/10/27 06:01:19;;;;;;;13.02;8.80;;;13.60;84.90;;;;;;5034387;28;20397;-76
2022/10/27 06:03:45;;;;;;;16.10;10.27;;;13.60;84.90;;;;;;5034560;28;20073;-76
2022/10/27 06:06:11;;;;;;;14.57;9.88;;;13.60;84.90;;;;;;5034781;28;20124;-76
2022/10/27 06:08:36;;;;;;;14.70;10.45;;;13.60;84.90;;;;;;5034080;28;20087;-73
2022/10/27 06:11:03;;;;;;;12.43;8.68;;;13.60;85.00;;;;;;5034104;28;20045;-73
2022/10/27 06:13:29;;;;;;;12.60;10.15;;;13.70;85.10;;;;;;5033395;28;20045;-73
2022/10/27 06:15:55;;;;;;;17.48;10.35;;;13.70;85.10;;;;;;5034209;28;20045;-73
2022/10/27 06:18:20;;;;;;;13.70;10.40;;;13.70;85.10;;;;;;5033851;28;20602;-73
2022/10/27 06:20:46;;;;;;;15.40;10.05;;;13.70;85.10;;;;;;5033823;28;20041;-73
2022/10/27 06:23:12;;;;;;;13.10;10.50;;;13.70;85.10;;;;;;5033980;28;20041;-73
2022/10/27 06:25:38;;;;;;;11.35;9.35;;;13.70;85.20;;;;;;5033911;28;20072;-73
2022/10/27 06:28:04;;;;;;;16.20;10.05;;;13.70;85.20;;;;;;5033715;28;20045;-73
2022/10/27 06:30:29;;;;;;;14.13;9.95;;;13.70;85.20;;;;;;5049825;28;20129;-73
2022/10/27 06:32:55;;;;;;;14.98;9.73;;;13.70;85.20;;;;;;5033028;28;20045;-73
2022/10/27 06:35:21;;;;;;;12.25;9.48;;;13.70;85.20;;;;;;5033330;28;20401;-73
2022/10/27 06:37:46;;;;;;;13.30;9.15;;;13.70;85.20;;;;;;5033643;28;20037;-75
2022/10/27 06:40:15;;;;;;;12.15;9.32;;;13.70;85.20;;;;;;5033720;28;20072;-76
2022/10/27 06:42:41;;;;;;;12.38;9.35;;;13.70;85.20;;;;;;5033869;28;20472;-76
2022/10/27 06:45:07;;;;;;;15.13;9.70;;;13.80;85.60;;;;;;5017253;28;20076;-76
2022/10/27 06:47:33;;;;;;;16.20;9.32;;;13.80;85.20;;;;;;5016580;28;20048;-76
2022/10/27 06:49:59;;;;;;;12.70;8.43;;;13.80;85.60;;;;;;5033561;28;20416;-76
2022/10/27 06:52:25;;;;;;;13.18;9.45;;;13.80;85.20;;;;;;5033040;28;20095;-75
2022/10/27 06:54:51;;;;;;;14.43;8.88;;;13.80;85.20;;;;;;5017070;28;20116;-75
2022/10/27 06:57:17;;;;;;;16.30;9.30;;;13.80;85.20;;;;;;5033818;28;20080;-75
2022/10/27 06:59:43;;;;;;;13.15;8.10;;;13.80;85.20;;;;;;5033599;28;20041;-75
2022/10/27 07:02:11;;;;;;;12.60;9.13;;;13.80;85.20;;;;;;5033576;28;20045;-76
2022/10/27 07:04:36;;;;;;;11.93;8.35;;;13.80;85.20;;;;;;5033225;28;20049;-76
2022/10/27 07:07:02;;;;;;;12.00;8.63;;;13.80;85.20;;;;;;5033425;28;20048;-76
2022/10/27 07:09:28;;;;;;;14.05;8.73;;;13.80;85.10;;;;;;5033469;28;20055;-76
2022/10/27 07:11:53;;;;;;;12.18;8.30;;;13.90;85.10;;;;;;5032917;28;20408;-75
2022/10/27 07:14:19;;;;;;;11.32;7.70;;;13.90;85.10;;;;;;5032949;28;20053;-75
2022/10/27 07:16:45;;;;;;;11.98;8.27;;;13.90;85.10;;;;;;5016656;28;20126;-75
2022/10/27 07:19:11;;;;;;;12.57;8.18;;;14.00;85.10;;;;;;5032903;28;20037;-75
2022/10/27 07:21:36;;;;;;;11.40;7.43;;;14.00;85.10;;;;;;5033024;28;20388;-75
2022/10/27 07:24:02;;;;;;;9.98;7.80;;;14.00;85.00;;;;;;5033115;28;20038;-75
2022/10/27 07:26:28;;;;;;;13.70;7.55;;;14.00;84.90;;;;;;5032739;28;20037;-75
2022/10/27 07:28:53;;;;;;;12.18;8.18;;;14.00;84.80;;;;;;5016344;28;20041;-75
2022/10/27 07:31:19;;;;;;;11.25;8.27;;;14.10;84.80;;;;;;5032453;28;20044;-75
2022/10/27 07:33:45;;;;;;;11.18;7.35;;;14.10;84.70;;;;;;5032627;28;20072;-75
2022/10/27 07:36:10;;;;;;;11.65;7.43;;;14.20;84.60;;;;;;5032665;28;20037;-75
2022/10/27 07:38:37;;;;;;;12.93;8.00;;;14.20;84.60;;;;;;5031572;28;20046;-73
2022/10/27 07:41:03;;;;;;;11.88;7.55;;;14.20;84.40;;;;;;5032524;28;20450;-73
2022/10/27 07:43:29;;;;;;;11.35;7.30;;;14.20;84.40;;;;;;5032511;28;20045;-72
2022/10/27 07:45:55;;;;;;;8.85;6.78;;;14.30;84.40;;;;;;5015964;28;20116;-72
2022/10/27 07:48:20;;;;;;;11.88;7.53;;;14.30;84.30;;;;;;5032534;28;20045;-72
2022/10/27 07:50:46;;;;;;;9.15;6.63;;;14.30;84.20;;;;;;5032273;28;20056;-75
2022/10/27 07:53:14;;;;;;;12.43;6.57;;;14.30;84.10;;;;;;5032437;28;20049;-76
2022/10/27 07:55:40;;;;;;;13.05;7.20;;;14.40;84.10;;;;;;5032521;28;20049;-76
2022/10/27 07:58:11;;;;;;;12.75;7.28;;;14.40;83.90;;;;;;5032295;28;20052;-73
2022/10/27 08:00:43;;;;;;;13.13;7.53;;;14.40;83.80;;;;;;5032144;28;20038;-75
2022/10/27 08:03:20;;;;;;;11.88;6.85;;;14.50;83.70;;;;;;5031604;28;20044;-75
2022/10/27 08:05:46;;;;;;;12.25;7.15;;;14.60;83.60;;;;;;5032241;28;20034;-75
2022/10/27 08:08:13;;;;;;;11.85;7.07;;;14.60;83.50;;;;;;5031483;28;20047;-76
2022/10/27 08:10:40;;;;;;;10.55;6.90;;;14.70;83.40;;;;;;5032244;28;20389;-76
2022/10/27 08:13:07;;;;;;;11.00;7.00;;;14.70;83.20;;;;;;5031816;28;20073;-73
2022/10/27 08:15:33;;;;;;;11.95;6.95;;;14.70;83.00;;;;;;5031597;28;20084;-73
2022/10/27 08:18:01;;;;;;;12.75;6.72;;;14.80;82.90;;;;;;5031197;28;20499;-73
2022/10/27 08:20:30;;;;;;;10.50;6.82;;;14.80;82.70;;;;;;5015495;28;20056;-73
2022/10/27 08:22:58;;;;;;;12.02;7.10;;;14.80;82.60;;;;;;5031374;28;20556;-75
2022/10/27 08:25:25;;;;;;;11.15;6.65;;;14.90;82.50;;;;;;5032249;28;20047;-75
2022/10/27 08:27:51;;;;;;;11.95;7.03;;;14.90;82.30;;;;;;5031392;28;20052;-75
2022/10/27 08:30:17;;;;;;;12.23;7.45;;;15.00;82.30;;;;;;5032241;28;20042;-73
2022/10/27 08:32:42;;;;;;;12.73;8.25;;;15.10;82.30;;;;;;5031864;28;20034;-73
2022/10/27 08:35:08;;;;;;;11.43;6.65;;;15.10;82.30;;;;;;5031199;28;20034;-73
2022/10/27 08:37:34;;;;;;;10.30;7.00;;;15.30;82.30;;;;;;5014752;28;20483;-73
2022/10/27 08:40:00;;;;;;;12.93;7.03;;;15.30;82.10;;;;;;5047454;28;20112;-73
2022/10/27 08:42:28;;;;;;;12.63;6.28;;;15.50;82.10;;;;;;5030977;28;20034;-76
2022/10/27 08:45:08;;;;;;;15.00;7.57;;;15.60;81.90;;;;;;5032169;28;20041;-76
2022/10/27 08:47:33;;;;;;;12.93;7.07;;;15.70;81.40;;;;;;5031762;28;20501;-76
2022/10/27 08:50:14;;;;;;;11.05;5.82;;;15.80;81.20;;;;;;5032007;28;20091;-73
2022/10/27 08:52:54;;;;;;;10.18;5.72;;;16.00;80.70;;;;;;5031264;28;20042;-73
2022/10/27 08:55:23;;;;;;;7.55;5.47;;;16.10;80.30;;;;;;5031650;28;20045;-73
2022/10/27 08:58:08;;;;;;;9.85;6.22;;;16.20;80.00;;;;;;5030568;28;20119;-73
2022/10/27 09:00:46;;;;;;;12.07;5.82;;;16.30;79.10;;;;;;5031144;28;20041;-73
2022/10/27 09:03:30;;;;;;;9.40;5.50;;;16.50;78.80;;;;;;5014414;28;20045;-75
2022/10/27 09:06:07;;;;;;;10.75;5.38;;;16.60;78.10;;;;;;5030979;28;20044;-76
2022/10/27 09:08:52;;;;;;;10.43;5.43;;;16.60;77.80;;;;;;5014989;28;20107;-76
2022/10/27 09:11:59;;;;;;;10.10;5.53;;;16.70;77.40;;;;;;5018375;28;20064;-79
2022/10/27 09:14:33;;;;;;;12.65;5.50;;;16.80;77.10;;;;;;5035292;28;20563;-79
2022/10/27 09:17:18;;;;;;;11.75;5.55;;;16.90;77.20;;;;;;5035566;28;20049;-79
2022/10/27 09:19:55;;;;;;;9.25;5.38;;;16.90;76.70;;;;;;5035275;28;20041;-76
2022/10/27 09:22:24;;;;;;;9.23;4.93;;;17.00;76.40;;;;;;5035218;28;20079;-80
2022/10/27 09:24:58;;;;;;;13.05;4.97;;;17.00;76.40;;;;;;5035481;28;20522;-79
2022/10/27 09:27:24;;;;;;;10.07;5.25;;;17.10;76.30;;;;;;5034846;28;20045;-76
2022/10/27 09:29:51;;;;;;;9.68;5.03;;;17.10;76.10;;;;;;5035191;28;20056;-79
2022/10/27 09:32:24;;;;;;;8.07;4.72;;;17.20;75.70;;;;;;5035323;28;20461;-77
2022/10/27 09:34:57;;;;;;;8.90;4.70;;;17.20;75.50;;;;;;5033832;28;20080;-77
2022/10/27 09:37:23;;;;;;;11.20;5.05;;;17.20;75.30;;;;;;5033496;28;20064;-79
2022/10/27 09:39:51;;;;;;;7.90;4.15;;;17.20;75.10;;;;;;5018227;28;20037;-76
2022/10/27 09:42:17;;;;;;;9.18;4.95;;;17.20;75.10;;;;;;5034782;28;20052;-77
2022/10/27 09:44:52;;;;;;;7.18;4.50;;;17.20;74.80;;;;;;5033508;28;20041;-77
2022/10/27 09:47:20;;;;;;;10.15;3.95;;;17.30;74.50;;;;;;5035150;28;20037;-79
2022/10/27 09:49:47;;;;;;;7.78;4.22;;;17.30;74.80;;;;;;5051121;28;20091;-80
2022/10/27 09:52:19;;;;;;;9.05;4.40;;;17.30;74.50;;;;;;5035245;28;20084;-79
2022/10/27 09:55:03;;;;;;;8.40;3.75;;;17.40;74.20;;;;;;5034585;28;20073;-79
2022/10/27 09:57:35;;;;;;;8.65;3.90;;;17.40;73.70;;;;;;5051411;28;20045;-79
2022/10/27 10:00:07;;;;;;;7.00;3.67;;;17.40;73.80;;;;;;5034606;28;20072;-77
2022/10/27 10:02:36;;;;;;;6.80;3.75;;;17.50;73.80;;;;;;5034443;28;20506;-77
2022/10/27 10:05:26;;;;;;;7.10;3.42;;;17.60;73.80;;;;;;5017604;28;20141;-77
2022/10/27 10:07:53;;;;;;;6.50;2.83;;;17.60;73.70;;;;;;5016758;28;20049;-76
2022/10/27 10:10:31;;;;;;;9.60;4.15;;;17.70;73.80;;;;;;5034146;28;20068;-77
2022/10/27 10:13:03;;;;;;;6.72;2.90;;;17.80;73.50;;;;;;5034449;28;20125;-77
2022/10/27 10:15:29;;;;;;;7.30;3.35;;;17.80;73.20;;;;;;5032638;28;20057;-77
2022/10/27 10:18:00;;;;;;;5.55;2.75;;;17.90;73.10;;;;;;5033530;28;20041;-73
2022/10/27 10:20:31;;;;;;;7.05;3.33;;;18.00;72.80;;;;;;5050237;28;20076;-76
2022/10/27 10:22:58;;;;;;;7.00;2.83;;;18.10;72.40;;;;;;5034131;28;20385;-73
2022/10/27 10:25:27;;;;;;;5.35;2.63;;;18.10;72.00;;;;;;5033480;28;20049;-73
2022/10/27 10:28:06;;;;;;;7.85;2.47;;;18.20;71.30;;;;;;5033648;28;20077;-73
2022/10/27 10:30:37;;;;;;;7.32;2.90;;;18.30;71.00;;;;;;5033868;28;20033;-72
2022/10/27 10:33:05;;;;;;;6.10;2.72;;;18.30;71.00;;;;;;5033151;28;20037;-72
2022/10/27 10:36:14;;;;;;;6.53;2.75;;;18.40;70.80;;;;;;5033418;28;20045;-72
2022/10/27 10:38:41;;;;;;;7.07;3.05;;;18.50;70.70;;;;;;5011764;28;20052;-72
2022/10/27 10:41:15;;;;;;;9.18;3.00;;;18.50;70.80;;;;;;5033617;28;20041;-75
2022/10/27 10:43:42;;;;;;;8.05;2.80;;;18.50;70.70;;;;;;5033707;28;20046;-72
2022/10/27 10:46:23;;;;;;;9.85;3.75;;;18.60;70.70;;;;;;5033116;28;20049;-73
2022/10/27 10:48:57;;;;;;;7.82;2.40;;;18.70;70.40;;;;;;5033222;28;20405;-75
2022/10/27 10:51:28;;;;;;;8.88;3.35;;;18.80;70.80;;;;;;5033073;28;20481;-75
2022/10/27 10:54:08;;;;;;;8.95;3.25;;;18.90;69.70;;;;;;5033370;28;20076;-75
2022/10/27 10:56:36;;;;;;;7.15;3.63;;;18.90;69.30;;;;;;5024691;28;20113;-75
2022/10/27 10:59:15;;;;;;;7.15;2.63;;;19.00;68.90;;;;;;5047105;28;20493;-75
2022/10/27 11:02:10;;;;;;;7.90;2.92;;;19.10;68.10;;;;;;5031574;28;20044;-72
2022/10/27 11:04:43;;;;;;;10.43;3.00;;;19.20;68.60;;;;;;5035706;28;20037;-72
2022/10/27 11:07:32;;;;;;;6.15;2.70;;;19.20;68.50;;;;;;5032573;28;20565;-72
2022/10/27 11:10:08;;;;;;;8.68;3.25;;;19.20;68.80;;;;;;5029966;28;20443;-74
2022/10/27 11:12:42;;;;;;;7.95;2.60;;;19.30;68.00;;;;;;5033133;28;20045;-72
2022/10/27 11:15:27;;;;;;;5.28;2.10;;;19.30;67.60;;;;;;5032491;28;20084;-72
2022/10/27 11:17:57;;;;;;;6.65;2.90;;;19.30;67.40;;;;;;5032939;28;20045;-72
2022/10/27 11:20:34;;;;;;;6.75;2.15;;;19.30;67.30;;;;;;5032394;28;20102;-73
2022/10/27 11:23:05;;;;;;;5.40;1.85;;;19.30;66.60;;;;;;5032502;28;20029;-75
2022/10/27 11:25:33;;;;;;;3.72;1.33;;;19.30;66.80;;;;;;5032181;28;20025;-72
2022/10/27 11:28:17;;;;;;;5.13;1.70;;;19.30;67.10;;;;;;5032132;28;20527;-72
2022/10/27 11:30:51;;;;;;;5.40;1.60;;;19.20;66.60;;;;;;5032348;28;20041;-76
2022/10/27 11:33:39;;;;;;;4.60;1.45;;;19.30;66.30;;;;;;5032250;28;20076;-75
2022/10/27 11:36:41;;;;;;;6.28;1.92;;;19.20;66.10;;;;;;5049004;28;20136;-72
2022/10/27 11:39:11;;;;;;;4.85;1.90;;;19.20;66.50;;;;;;5016207;28;20037;-72
2022/10/27 11:41:53;;;;;;;5.97;1.73;;;19.20;66.40;;;;;;5032306;28;20116;-72
2022/10/27 11:44:56;;;;;;;6.45;1.80;;;19.20;66.20;;;;;;5031967;28;20041;-72
2022/10/27 11:47:29;;;;;;;5.38;1.67;;;19.20;66.00;;;;;;5031988;28;20492;-75
2022/10/27 11:50:13;;;;;;;4.38;1.50;;;19.20;66.20;;;;;;5045321;28;20048;-72
2022/10/27 11:52:47;;;;;;;5.72;1.30;;;19.20;66.20;;;;;;5048391;28;20052;-71
2022/10/27 11:55:16;;;;;;;5.35;1.40;;;19.20;65.80;;;;;;5045177;28;20073;-72
2022/10/27 11:57:53;;;;;;;4.95;1.35;;;19.20;66.00;;;;;;5014815;28;20515;-72
2022/10/27 12:00:25;;;;;;;4.00;1.77;;;19.20;66.00;;;;;;5031666;28;20492;-79
2022/10/27 12:03:30;;;;;;;4.07;1.23;;;19.20;66.20;;;;;;5031483;28;20550;-72
2022/10/27 12:06:28;;;;;;;3.25;1.33;;;19.20;66.10;;;;;;5029893;28;20507;-73
2022/10/27 12:09:06;;;;;;;4.65;1.30;;;19.20;66.20;;;;;;5031586;28;20052;-73
2022/10/27 12:12:05;;;;;;;5.35;1.23;;;19.20;66.40;;;;;;5031901;28;20045;-73
2022/10/27 12:14:38;;;;;;;3.22;1.17;;;19.10;66.20;;;;;;5031304;28;20053;-72
2022/10/27 12:17:40;;;;;;;5.47;1.65;;;19.10;66.40;;;;;;5031040;28;20041;-72
2022/10/27 12:20:08;;;;;;;3.75;1.52;;;19.10;66.50;;;;;;5031363;28;20080;-72
2022/10/27 12:23:06;;;;;;;4.00;1.40;;;19.10;66.80;;;;;;5028246;28;20401;-72
2022/10/27 12:25:33;;;;;;;4.25;1.25;;;19.10;66.80;;;;;;5031065;28;20049;-72
2022/10/27 12:28:05;;;;;;;4.75;1.55;;;19.10;67.00;;;;;;5030886;28;20492;-72
2022/10/27 12:30:31;;;;;;;4.03;1.20;;;19.10;66.70;;;;;;5014839;28;20034;-72
2022/10/27 12:33:16;;;;;;;3.60;1.30;;;19.10;66.60;;;;;;5031338;28;20401;-72
2022/10/27 12:35:52;;;;;;;3.75;1.45;;;19.10;66.90;;;;;;5048064;28;20045;-79
2022/10/27 12:38:45;;;;;;;4.47;1.35;;;19.10;67.20;;;;;;5032103;28;20033;-77
2022/10/27 12:41:35;;;;;;;4.28;1.20;;;19.20;67.30;;;;;;5031609;28;20041;-74
2022/10/27 12:44:45;;;;;;;5.13;1.67;;;19.20;67.30;;;;;;5031580;28;20366;-73
2022/10/27 12:47:34;;;;;;;5.97;1.50;;;19.20;67.00;;;;;;5031196;28;20063;-74
2022/10/27 12:50:22;;;;;;;4.90;1.42;;;19.20;67.00;;;;;;5034962;28;20053;-75
2022/10/27 12:53:13;;;;;;;7.07;1.30;;;19.30;67.00;;;;;;5034889;28;20045;-75
2022/10/27 12:55:56;;;;;;;6.88;1.45;;;19.30;67.10;;;;;;5018501;28;20041;-74
2022/10/27 12:58:40;;;;;;;5.82;1.27;;;19.40;67.00;;;;;;5035139;28;20063;-74